sensor_id;sensor_type;location;lat;lon;timestamp;P1;P2;P0
62631;PMS5003;48703;51.248;-0.546;2022-09-12T00:01:05;18.49;16.96;
62631;PMS5003;48703;51.248;-0.546;2022-09-12T00:03:59;20.06;17.07;
62631;PMS5003;48703;51.248;-0.546;2022-09-12T00:07:00;16.30;16.30;
62631;PMS5003;48703;51.248;-0.546;2022-09-12T00:10:02;20.87;19.23;
62631;PMS5003;48703;51.248;-0.546;2022-09-12T00:13:03;19.44;18.14;
62631;PMS5003;48703;51.248;-0.546;2022-09-12T00:16:05;18.07;17.09;
62631;PMS5003;48703;51.248;-0.546;2022-09-12T00:19:06;19.97;18.03;
62631;PMS5003;48703;51.248;-0.546;2022-09-12T00:22:07;18.43;16.87;
62631;PMS5003;48703;51.248;-0.546;2022-09-12T00:25:08;19.96;19.35;
62631;PMS5003;48703;51.248;-0.546;2022-09-12T00:28:10;18.27;16.40;
62631;PMS5003;48703;51.248;-0.546;2022-09-12T00:31:11;21.74;19.13;
62631;PMS5003;48703;51.248;-0.546;2022-09-12T00:34:12;20.21;18.29;
62631;PMS5003;48703;51.248;-0.546;2022-09-12T00:37:14;19.81;17.74;
62631;PMS5003;48703;51.248;-0.546;2022-09-12T00:40:15;16.96;15.74;
62631;PMS5003;48703;51.248;-0.546;2022-09-12T00:43:32;19.55;18.77;
62631;PMS5003;48703;51.248;-0.546;2022-09-12T00:46:23;20.07;18.60;
62631;PMS5003;48703;51.248;-0.546;2022-09-12T00:49:20;21.29;18.59;
62631;PMS5003;48703;51.248;-0.546;2022-09-12T00:52:21;20.86;19.40;
62631;PMS5003;48703;51.248;-0.546;2022-09-12T00:55:22;19.73;18.51;
62631;PMS5003;48703;51.248;-0.546;2022-09-12T00:58:23;19.35;17.96;
62631;PMS5003;48703;51.248;-0.546;2022-09-12T01:01:23;22.00;19.90;
62631;PMS5003;48703;51.248;-0.546;2022-09-12T01:04:25;22.23;19.89;
62631;PMS5003;48703;51.248;-0.546;2022-09-12T01:07:26;18.49;16.54;
62631;PMS5003;48703;51.248;-0.546;2022-09-12T01:10:27;21.71;19.43;
62631;PMS5003;48703;51.248;-0.546;2022-09-12T01:13:28;21.81;19.56;
62631;PMS5003;48703;51.248;-0.546;2022-09-12T01:16:29;22.30;19.27;
62631;PMS5003;48703;51.248;-0.546;2022-09-12T01:19:36;20.86;19.03;
62631;PMS5003;48703;51.248;-0.546;2022-09-12T01:22:37;22.14;20.26;
62631;PMS5003;48703;51.248;-0.546;2022-09-12T01:25:34;21.01;17.46;
62631;PMS5003;48703;51.248;-0.546;2022-09-12T01:28:41;18.49;17.46;
62631;PMS5003;48703;51.248;-0.546;2022-09-12T01:31:36;21.43;18.75;
62631;PMS5003;48703;51.248;-0.546;2022-09-12T01:34:37;19.90;18.28;
62631;PMS5003;48703;51.248;-0.546;2022-09-12T01:37:38;17.33;16.50;
62631;PMS5003;48703;51.248;-0.546;2022-09-12T01:40:41;20.59;19.54;
62631;PMS5003;48703;51.248;-0.546;2022-09-12T01:43:41;19.55;18.48;
62631;PMS5003;48703;51.248;-0.546;2022-09-12T01:46:41;18.09;16.87;
62631;PMS5003;48703;51.248;-0.546;2022-09-12T01:49:43;16.61;15.91;
62631;PMS5003;48703;51.248;-0.546;2022-09-12T01:52:45;17.43;17.20;
62631;PMS5003;48703;51.248;-0.546;2022-09-12T01:55:47;19.86;17.80;
62631;PMS5003;48703;51.248;-0.546;2022-09-12T01:58:48;17.56;16.47;
62631;PMS5003;48703;51.248;-0.546;2022-09-12T02:01:49;15.96;15.06;
62631;PMS5003;48703;51.248;-0.546;2022-09-12T02:04:50;18.51;17.40;
62631;PMS5003;48703;51.248;-0.546;2022-09-12T02:07:50;16.71;15.71;
62631;PMS5003;48703;51.248;-0.546;2022-09-12T02:10:52;18.83;17.09;
62631;PMS5003;48703;51.248;-0.546;2022-09-12T02:13:53;19.11;17.46;
62631;PMS5003;48703;51.248;-0.546;2022-09-12T02:16:54;19.57;18.51;
62631;PMS5003;48703;51.248;-0.546;2022-09-12T02:19:56;16.81;16.20;
62631;PMS5003;48703;51.248;-0.546;2022-09-12T02:22:56;17.01;16.56;
62631;PMS5003;48703;51.248;-0.546;2022-09-12T02:25:59;18.41;16.74;
62631;PMS5003;48703;51.248;-0.546;2022-09-12T02:28:58;15.24;14.89;
62631;PMS5003;48703;51.248;-0.546;2022-09-12T02:32:01;16.72;15.97;
62631;PMS5003;48703;51.248;-0.546;2022-09-12T02:35:02;16.17;14.46;
62631;PMS5003;48703;51.248;-0.546;2022-09-12T02:38:04;19.61;16.74;
62631;PMS5003;48703;51.248;-0.546;2022-09-12T02:41:04;19.57;17.78;
62631;PMS5003;48703;51.248;-0.546;2022-09-12T02:44:05;15.27;14.30;
62631;PMS5003;48703;51.248;-0.546;2022-09-12T02:47:07;17.04;16.65;
62631;PMS5003;48703;51.248;-0.546;2022-09-12T02:50:08;18.06;16.91;
62631;PMS5003;48703;51.248;-0.546;2022-09-12T02:53:09;15.07;14.53;
62631;PMS5003;48703;51.248;-0.546;2022-09-12T02:56:12;15.13;14.13;
62631;PMS5003;48703;51.248;-0.546;2022-09-12T02:59:13;15.57;14.64;
62631;PMS5003;48703;51.248;-0.546;2022-09-12T03:02:15;17.16;16.17;
62631;PMS5003;48703;51.248;-0.546;2022-09-12T03:05:16;16.74;15.26;
62631;PMS5003;48703;51.248;-0.546;2022-09-12T03:08:24;14.74;14.36;
62631;PMS5003;48703;51.248;-0.546;2022-09-12T03:11:22;16.91;14.86;
62631;PMS5003;48703;51.248;-0.546;2022-09-12T03:14:21;14.87;14.49;
62631;PMS5003;48703;51.248;-0.546;2022-09-12T03:17:22;14.77;13.86;
62631;PMS5003;48703;51.248;-0.546;2022-09-12T03:20:21;15.90;14.66;
62631;PMS5003;48703;51.248;-0.546;2022-09-12T03:23:23;15.35;14.54;
62631;PMS5003;48703;51.248;-0.546;2022-09-12T03:26:25;14.91;14.06;
62631;PMS5003;48703;51.248;-0.546;2022-09-12T03:29:23;14.55;14.06;
62631;PMS5003;48703;51.248;-0.546;2022-09-12T03:32:57;12.79;12.21;
62631;PMS5003;48703;51.248;-0.546;2022-09-12T03:35:26;15.10;14.19;
62631;PMS5003;48703;51.248;-0.546;2022-09-12T03:38:28;14.53;12.20;
62631;PMS5003;48703;51.248;-0.546;2022-09-12T03:41:29;14.40;13.36;
62631;PMS5003;48703;51.248;-0.546;2022-09-12T03:44:30;14.93;13.19;
62631;PMS5003;48703;51.248;-0.546;2022-09-12T03:47:32;12.16;10.63;
62631;PMS5003;48703;51.248;-0.546;2022-09-12T03:50:33;13.54;12.61;
62631;PMS5003;48703;51.248;-0.546;2022-09-12T03:53:35;12.16;11.44;
62631;PMS5003;48703;51.248;-0.546;2022-09-12T03:56:36;13.46;13.27;
62631;PMS5003;48703;51.248;-0.546;2022-09-12T03:59:37;12.76;12.76;
62631;PMS5003;48703;51.248;-0.546;2022-09-12T04:02:39;12.59;11.60;
62631;PMS5003;48703;51.248;-0.546;2022-09-12T04:05:41;12.01;11.97;
62631;PMS5003;48703;51.248;-0.546;2022-09-12T04:08:43;14.22;12.48;
62631;PMS5003;48703;51.248;-0.546;2022-09-12T04:11:43;12.51;11.96;
62631;PMS5003;48703;51.248;-0.546;2022-09-12T04:14:44;13.41;11.91;
62631;PMS5003;48703;51.248;-0.546;2022-09-12T04:17:46;11.09;11.09;
62631;PMS5003;48703;51.248;-0.546;2022-09-12T04:20:47;12.00;11.43;
62631;PMS5003;48703;51.248;-0.546;2022-09-12T04:23:49;12.80;11.11;
62631;PMS5003;48703;51.248;-0.546;2022-09-12T04:26:50;12.73;11.97;
62631;PMS5003;48703;51.248;-0.546;2022-09-12T04:29:52;12.09;11.19;
62631;PMS5003;48703;51.248;-0.546;2022-09-12T04:32:53;14.78;13.35;
62631;PMS5003;48703;51.248;-0.546;2022-09-12T04:35:55;12.14;11.19;
62631;PMS5003;48703;51.248;-0.546;2022-09-12T04:38:56;12.22;11.09;
62631;PMS5003;48703;51.248;-0.546;2022-09-12T04:41:57;11.36;11.36;
62631;PMS5003;48703;51.248;-0.546;2022-09-12T04:44:59;10.14;9.83;
62631;PMS5003;48703;51.248;-0.546;2022-09-12T04:48:01;11.03;10.83;
62631;PMS5003;48703;51.248;-0.546;2022-09-12T04:51:05;11.91;11.74;
62631;PMS5003;48703;51.248;-0.546;2022-09-12T04:54:04;11.81;11.21;
62631;PMS5003;48703;51.248;-0.546;2022-09-12T04:57:05;12.51;11.29;
62631;PMS5003;48703;51.248;-0.546;2022-09-12T05:00:06;11.03;10.17;
62631;PMS5003;48703;51.248;-0.546;2022-09-12T05:03:07;11.74;10.89;
62631;PMS5003;48703;51.248;-0.546;2022-09-12T05:06:10;12.88;11.16;
62631;PMS5003;48703;51.248;-0.546;2022-09-12T05:09:10;11.17;10.81;
62631;PMS5003;48703;51.248;-0.546;2022-09-12T05:12:11;11.00;9.81;
62631;PMS5003;48703;51.248;-0.546;2022-09-12T05:15:13;12.57;11.19;
62631;PMS5003;48703;51.248;-0.546;2022-09-12T05:18:14;14.41;13.03;
62631;PMS5003;48703;51.248;-0.546;2022-09-12T05:21:16;10.21;10.20;
62631;PMS5003;48703;51.248;-0.546;2022-09-12T05:24:17;9.67;9.67;
62631;PMS5003;48703;51.248;-0.546;2022-09-12T05:27:18;12.41;10.61;
62631;PMS5003;48703;51.248;-0.546;2022-09-12T05:30:20;11.96;10.67;
62631;PMS5003;48703;51.248;-0.546;2022-09-12T05:33:21;11.06;10.26;
62631;PMS5003;48703;51.248;-0.546;2022-09-12T05:36:23;10.23;9.79;
62631;PMS5003;48703;51.248;-0.546;2022-09-12T05:39:24;10.93;10.50;
62631;PMS5003;48703;51.248;-0.546;2022-09-12T05:42:28;12.29;10.63;
62631;PMS5003;48703;51.248;-0.546;2022-09-12T05:45:27;10.55;10.33;
62631;PMS5003;48703;51.248;-0.546;2022-09-12T05:48:28;11.04;10.53;
62631;PMS5003;48703;51.248;-0.546;2022-09-12T05:51:31;12.39;11.27;
62631;PMS5003;48703;51.248;-0.546;2022-09-12T05:54:31;12.24;11.06;
62631;PMS5003;48703;51.248;-0.546;2022-09-12T05:57:33;10.94;10.49;
62631;PMS5003;48703;51.248;-0.546;2022-09-12T06:00:34;9.93;9.66;
62631;PMS5003;48703;51.248;-0.546;2022-09-12T06:03:39;10.83;9.54;
62631;PMS5003;48703;51.248;-0.546;2022-09-12T06:06:38;11.23;10.24;
62631;PMS5003;48703;51.248;-0.546;2022-09-12T06:09:39;9.20;8.74;
62631;PMS5003;48703;51.248;-0.546;2022-09-12T06:12:40;9.77;8.90;
62631;PMS5003;48703;51.248;-0.546;2022-09-12T06:15:42;10.84;9.80;
62631;PMS5003;48703;51.248;-0.546;2022-09-12T06:18:45;9.67;9.67;
62631;PMS5003;48703;51.248;-0.546;2022-09-12T06:21:45;9.36;8.93;
62631;PMS5003;48703;51.248;-0.546;2022-09-12T06:24:46;9.07;8.26;
62631;PMS5003;48703;51.248;-0.546;2022-09-12T06:27:47;10.11;9.21;
62631;PMS5003;48703;51.248;-0.546;2022-09-12T06:30:49;9.29;9.29;
62631;PMS5003;48703;51.248;-0.546;2022-09-12T06:33:51;8.54;8.24;
62631;PMS5003;48703;51.248;-0.546;2022-09-12T06:36:52;9.13;8.96;
62631;PMS5003;48703;51.248;-0.546;2022-09-12T06:39:53;9.24;8.13;
62631;PMS5003;48703;51.248;-0.546;2022-09-12T06:42:54;10.26;9.10;
62631;PMS5003;48703;51.248;-0.546;2022-09-12T06:45:56;7.89;7.89;
62631;PMS5003;48703;51.248;-0.546;2022-09-12T06:48:57;7.99;7.47;
62631;PMS5003;48703;51.248;-0.546;2022-09-12T06:51:58;9.36;7.93;
62631;PMS5003;48703;51.248;-0.546;2022-09-12T06:55:00;7.27;7.27;
62631;PMS5003;48703;51.248;-0.546;2022-09-12T06:58:01;8.11;7.57;
62631;PMS5003;48703;51.248;-0.546;2022-09-12T07:01:03;8.41;7.56;
62631;PMS5003;48703;51.248;-0.546;2022-09-12T07:04:04;8.11;7.39;
62631;PMS5003;48703;51.248;-0.546;2022-09-12T07:07:05;8.03;7.34;
62631;PMS5003;48703;51.248;-0.546;2022-09-12T07:10:07;9.22;8.51;
62631;PMS5003;48703;51.248;-0.546;2022-09-12T07:13:08;8.29;7.89;
62631;PMS5003;48703;51.248;-0.546;2022-09-12T07:16:10;8.30;8.30;
62631;PMS5003;48703;51.248;-0.546;2022-09-12T07:19:11;8.74;8.44;
62631;PMS5003;48703;51.248;-0.546;2022-09-12T07:22:12;8.13;7.16;
62631;PMS5003;48703;51.248;-0.546;2022-09-12T07:25:14;7.80;7.66;
62631;PMS5003;48703;51.248;-0.546;2022-09-12T07:28:15;7.51;7.51;
62631;PMS5003;48703;51.248;-0.546;2022-09-12T07:31:17;7.43;7.10;
62631;PMS5003;48703;51.248;-0.546;2022-09-12T07:34:18;7.37;6.76;
62631;PMS5003;48703;51.248;-0.546;2022-09-12T07:37:20;8.57;7.54;
62631;PMS5003;48703;51.248;-0.546;2022-09-12T07:40:21;7.57;6.80;
62631;PMS5003;48703;51.248;-0.546;2022-09-12T07:43:23;7.14;6.66;
62631;PMS5003;48703;51.248;-0.546;2022-09-12T07:46:24;9.13;7.97;
62631;PMS5003;48703;51.248;-0.546;2022-09-12T07:49:25;8.80;7.77;
62631;PMS5003;48703;51.248;-0.546;2022-09-12T07:52:27;6.94;6.94;
62631;PMS5003;48703;51.248;-0.546;2022-09-12T07:55:28;6.69;6.47;
62631;PMS5003;48703;51.248;-0.546;2022-09-12T07:58:30;8.16;7.64;
62631;PMS5003;48703;51.248;-0.546;2022-09-12T08:01:31;7.90;6.91;
62631;PMS5003;48703;51.248;-0.546;2022-09-12T08:04:32;9.23;8.16;
62631;PMS5003;48703;51.248;-0.546;2022-09-12T08:07:34;8.06;8.06;
62631;PMS5003;48703;51.248;-0.546;2022-09-12T08:10:35;6.73;6.09;
62631;PMS5003;48703;51.248;-0.546;2022-09-12T08:13:37;7.74;7.19;
62631;PMS5003;48703;51.248;-0.546;2022-09-12T08:16:38;7.91;6.87;
62631;PMS5003;48703;51.248;-0.546;2022-09-12T08:19:40;7.51;7.30;
62631;PMS5003;48703;51.248;-0.546;2022-09-12T08:22:41;6.67;6.44;
62631;PMS5003;48703;51.248;-0.546;2022-09-12T08:25:42;8.66;7.94;
62631;PMS5003;48703;51.248;-0.546;2022-09-12T08:28:44;9.03;8.59;
62631;PMS5003;48703;51.248;-0.546;2022-09-12T08:31:45;7.90;7.53;
62631;PMS5003;48703;51.248;-0.546;2022-09-12T08:34:46;6.89;6.43;
62631;PMS5003;48703;51.248;-0.546;2022-09-12T08:37:48;7.99;7.56;
62631;PMS5003;48703;51.248;-0.546;2022-09-12T08:40:50;8.09;7.30;
62631;PMS5003;48703;51.248;-0.546;2022-09-12T08:43:55;7.53;7.53;
62631;PMS5003;48703;51.248;-0.546;2022-09-12T08:46:56;8.04;7.39;
62631;PMS5003;48703;51.248;-0.546;2022-09-12T08:49:58;9.11;8.29;
62631;PMS5003;48703;51.248;-0.546;2022-09-12T08:52:56;7.93;7.93;
62631;PMS5003;48703;51.248;-0.546;2022-09-12T08:55:57;8.13;6.90;
62631;PMS5003;48703;51.248;-0.546;2022-09-12T08:58:58;7.80;7.27;
62631;PMS5003;48703;51.248;-0.546;2022-09-12T09:01:59;8.99;8.23;
62631;PMS5003;48703;51.248;-0.546;2022-09-12T09:05:02;7.34;7.06;
62631;PMS5003;48703;51.248;-0.546;2022-09-12T09:08:06;7.30;7.30;
62631;PMS5003;48703;51.248;-0.546;2022-09-12T09:11:06;8.86;8.56;
62631;PMS5003;48703;51.248;-0.546;2022-09-12T09:14:10;7.57;7.27;
62631;PMS5003;48703;51.248;-0.546;2022-09-12T09:17:07;8.06;8.06;
62631;PMS5003;48703;51.248;-0.546;2022-09-12T09:20:11;10.34;10.09;
62631;PMS5003;48703;51.248;-0.546;2022-09-12T09:23:11;8.63;7.87;
62631;PMS5003;48703;51.248;-0.546;2022-09-12T09:26:12;7.50;7.50;
62631;PMS5003;48703;51.248;-0.546;2022-09-12T09:29:14;8.13;7.90;
62631;PMS5003;48703;51.248;-0.546;2022-09-12T09:32:15;8.29;7.60;
62631;PMS5003;48703;51.248;-0.546;2022-09-12T09:35:15;7.80;7.80;
62631;PMS5003;48703;51.248;-0.546;2022-09-12T09:38:21;9.14;8.59;
62631;PMS5003;48703;51.248;-0.546;2022-09-12T09:41:19;7.99;7.49;
62631;PMS5003;48703;51.248;-0.546;2022-09-12T09:44:19;10.86;9.21;
62631;PMS5003;48703;51.248;-0.546;2022-09-12T09:47:20;8.13;8.07;
62631;PMS5003;48703;51.248;-0.546;2022-09-12T09:50:21;8.71;8.37;
62631;PMS5003;48703;51.248;-0.546;2022-09-12T09:53:25;8.01;7.71;
62631;PMS5003;48703;51.248;-0.546;2022-09-12T09:56:26;7.91;7.44;
62631;PMS5003;48703;51.248;-0.546;2022-09-12T09:59:26;6.46;6.46;
62631;PMS5003;48703;51.248;-0.546;2022-09-12T10:02:27;6.76;6.36;
62631;PMS5003;48703;51.248;-0.546;2022-09-12T10:05:28;6.03;5.80;
62631;PMS5003;48703;51.248;-0.546;2022-09-12T10:08:30;7.00;6.36;
62631;PMS5003;48703;51.248;-0.546;2022-09-12T10:11:31;6.51;6.46;
62631;PMS5003;48703;51.248;-0.546;2022-09-12T10:14:33;10.06;9.37;
62631;PMS5003;48703;51.248;-0.546;2022-09-12T10:17:40;8.20;7.53;
62631;PMS5003;48703;51.248;-0.546;2022-09-12T10:20:37;7.34;6.83;
62631;PMS5003;48703;51.248;-0.546;2022-09-12T10:23:36;7.79;7.74;
62631;PMS5003;48703;51.248;-0.546;2022-09-12T10:26:38;7.49;7.26;
62631;PMS5003;48703;51.248;-0.546;2022-09-12T10:29:40;6.51;6.49;
62631;PMS5003;48703;51.248;-0.546;2022-09-12T10:32:41;6.79;6.44;
62631;PMS5003;48703;51.248;-0.546;2022-09-12T10:35:43;7.86;7.40;
62631;PMS5003;48703;51.248;-0.546;2022-09-12T10:38:48;7.41;7.41;
62631;PMS5003;48703;51.248;-0.546;2022-09-12T10:41:44;7.97;7.97;
62631;PMS5003;48703;51.248;-0.546;2022-09-12T10:44:52;6.76;6.36;
62631;PMS5003;48703;51.248;-0.546;2022-09-12T10:47:47;8.11;7.07;
62631;PMS5003;48703;51.248;-0.546;2022-09-12T10:50:49;6.99;5.81;
62631;PMS5003;48703;51.248;-0.546;2022-09-12T10:53:51;6.36;6.36;
62631;PMS5003;48703;51.248;-0.546;2022-09-12T10:56:55;7.65;7.00;
62631;PMS5003;48703;51.248;-0.546;2022-09-12T10:59:57;7.56;7.47;
62631;PMS5003;48703;51.248;-0.546;2022-09-12T11:02:57;7.09;6.69;
62631;PMS5003;48703;51.248;-0.546;2022-09-12T11:05:56;7.00;6.36;
62631;PMS5003;48703;51.248;-0.546;2022-09-12T11:08:59;9.87;7.56;
62631;PMS5003;48703;51.248;-0.546;2022-09-12T11:12:01;7.03;7.03;
62631;PMS5003;48703;51.248;-0.546;2022-09-12T11:15:02;6.59;6.59;
62631;PMS5003;48703;51.248;-0.546;2022-09-12T11:18:03;6.14;6.07;
62631;PMS5003;48703;51.248;-0.546;2022-09-12T11:21:13;6.44;5.89;
62631;PMS5003;48703;51.248;-0.546;2022-09-12T11:24:07;6.70;6.70;
62631;PMS5003;48703;51.248;-0.546;2022-09-12T11:27:09;6.97;5.80;
62631;PMS5003;48703;51.248;-0.546;2022-09-12T11:30:07;6.93;6.46;
62631;PMS5003;48703;51.248;-0.546;2022-09-12T11:33:13;6.17;5.31;
62631;PMS5003;48703;51.248;-0.546;2022-09-12T11:36:13;7.36;6.53;
62631;PMS5003;48703;51.248;-0.546;2022-09-12T11:39:12;5.36;4.81;
62631;PMS5003;48703;51.248;-0.546;2022-09-12T11:42:14;6.37;6.37;
62631;PMS5003;48703;51.248;-0.546;2022-09-12T11:45:15;8.03;6.84;
62631;PMS5003;48703;51.248;-0.546;2022-09-12T11:48:16;5.83;5.83;
62631;PMS5003;48703;51.248;-0.546;2022-09-12T11:51:17;6.39;5.70;
62631;PMS5003;48703;51.248;-0.546;2022-09-12T11:54:20;6.47;5.91;
62631;PMS5003;48703;51.248;-0.546;2022-09-12T11:57:19;4.96;4.96;
62631;PMS5003;48703;51.248;-0.546;2022-09-12T12:00:21;5.56;5.33;
62631;PMS5003;48703;51.248;-0.546;2022-09-12T12:03:22;5.53;5.53;
62631;PMS5003;48703;51.248;-0.546;2022-09-12T12:06:23;5.96;5.96;
62631;PMS5003;48703;51.248;-0.546;2022-09-12T12:09:24;5.30;4.79;
62631;PMS5003;48703;51.248;-0.546;2022-09-12T12:12:26;4.49;4.49;
62631;PMS5003;48703;51.248;-0.546;2022-09-12T12:15:27;4.36;3.93;
62631;PMS5003;48703;51.248;-0.546;2022-09-12T12:18:29;5.40;5.40;
62631;PMS5003;48703;51.248;-0.546;2022-09-12T12:21:32;4.76;4.27;
62631;PMS5003;48703;51.248;-0.546;2022-09-12T12:24:31;5.11;5.11;
62631;PMS5003;48703;51.248;-0.546;2022-09-12T12:28:05;5.27;4.84;
62631;PMS5003;48703;51.248;-0.546;2022-09-12T12:30:57;4.90;4.60;
62631;PMS5003;48703;51.248;-0.546;2022-09-12T12:33:51;5.16;4.74;
62631;PMS5003;48703;51.248;-0.546;2022-09-12T12:36:37;4.34;4.11;
62631;PMS5003;48703;51.248;-0.546;2022-09-12T12:45:58;4.46;4.03;
62631;PMS5003;48703;51.248;-0.546;2022-09-12T12:48:43;5.87;5.56;
62631;PMS5003;48703;51.248;-0.546;2022-09-12T12:51:48;5.50;5.03;
62631;PMS5003;48703;51.248;-0.546;2022-09-12T12:54:49;5.06;4.41;
62631;PMS5003;48703;51.248;-0.546;2022-09-12T12:57:46;4.21;4.21;
62631;PMS5003;48703;51.248;-0.546;2022-09-12T13:00:47;5.14;4.89;
62631;PMS5003;48703;51.248;-0.546;2022-09-12T13:03:51;7.00;5.41;
62631;PMS5003;48703;51.248;-0.546;2022-09-12T13:06:54;5.44;5.44;
62631;PMS5003;48703;51.248;-0.546;2022-09-12T13:09:51;7.11;5.76;
62631;PMS5003;48703;51.248;-0.546;2022-09-12T13:12:53;5.01;4.41;
62631;PMS5003;48703;51.248;-0.546;2022-09-12T13:15:54;6.47;5.77;
62631;PMS5003;48703;51.248;-0.546;2022-09-12T13:18:55;4.70;4.56;
62631;PMS5003;48703;51.248;-0.546;2022-09-12T13:21:58;4.71;4.71;
62631;PMS5003;48703;51.248;-0.546;2022-09-12T13:24:58;5.51;4.99;
62631;PMS5003;48703;51.248;-0.546;2022-09-12T13:28:02;4.51;4.51;
62631;PMS5003;48703;51.248;-0.546;2022-09-12T13:31:01;5.79;4.59;
62631;PMS5003;48703;51.248;-0.546;2022-09-12T13:34:03;4.06;3.76;
62631;PMS5003;48703;51.248;-0.546;2022-09-12T13:37:39;3.79;3.70;
62631;PMS5003;48703;51.248;-0.546;2022-09-12T13:40:11;3.36;3.36;
62631;PMS5003;48703;51.248;-0.546;2022-09-12T13:43:10;4.80;4.80;
62631;PMS5003;48703;51.248;-0.546;2022-09-12T13:46:07;4.74;4.74;
62631;PMS5003;48703;51.248;-0.546;2022-09-12T13:49:16;3.39;3.39;
62631;PMS5003;48703;51.248;-0.546;2022-09-12T13:52:14;4.74;4.34;
62631;PMS5003;48703;51.248;-0.546;2022-09-12T13:55:13;3.41;3.41;
62631;PMS5003;48703;51.248;-0.546;2022-09-12T13:58:15;5.64;4.66;
62631;PMS5003;48703;51.248;-0.546;2022-09-12T14:01:14;6.36;5.69;
62631;PMS5003;48703;51.248;-0.546;2022-09-12T14:04:16;5.33;4.99;
62631;PMS5003;48703;51.248;-0.546;2022-09-12T14:07:17;5.14;4.83;
62631;PMS5003;48703;51.248;-0.546;2022-09-12T14:10:20;7.44;5.54;
62631;PMS5003;48703;51.248;-0.546;2022-09-12T14:13:20;4.86;4.69;
62631;PMS5003;48703;51.248;-0.546;2022-09-12T14:16:21;4.51;4.03;
62631;PMS5003;48703;51.248;-0.546;2022-09-12T14:19:22;4.67;3.97;
62631;PMS5003;48703;51.248;-0.546;2022-09-12T14:22:23;5.38;5.09;
62631;PMS5003;48703;51.248;-0.546;2022-09-12T14:25:24;5.94;5.94;
62631;PMS5003;48703;51.248;-0.546;2022-09-12T14:28:26;4.44;3.96;
62631;PMS5003;48703;51.248;-0.546;2022-09-12T14:31:28;5.09;3.60;
62631;PMS5003;48703;51.248;-0.546;2022-09-12T14:34:28;4.46;3.87;
62631;PMS5003;48703;51.248;-0.546;2022-09-12T14:37:30;3.89;3.40;
62631;PMS5003;48703;51.248;-0.546;2022-09-12T14:40:31;3.67;3.67;
62631;PMS5003;48703;51.248;-0.546;2022-09-12T14:43:33;3.23;3.20;
62631;PMS5003;48703;51.248;-0.546;2022-09-12T14:46:34;5.76;4.43;
62631;PMS5003;48703;51.248;-0.546;2022-09-12T14:49:35;4.23;3.13;
62631;PMS5003;48703;51.248;-0.546;2022-09-12T14:52:36;5.26;5.13;
62631;PMS5003;48703;51.248;-0.546;2022-09-12T14:55:41;6.89;6.31;
62631;PMS5003;48703;51.248;-0.546;2022-09-12T14:58:39;6.67;6.67;
62631;PMS5003;48703;51.248;-0.546;2022-09-12T15:01:40;4.40;4.40;
62631;PMS5003;48703;51.248;-0.546;2022-09-12T15:04:42;4.07;3.59;
62631;PMS5003;48703;51.248;-0.546;2022-09-12T15:07:43;3.86;3.84;
62631;PMS5003;48703;51.248;-0.546;2022-09-12T15:10:44;4.01;3.74;
62631;PMS5003;48703;51.248;-0.546;2022-09-12T15:13:45;4.16;4.16;
62631;PMS5003;48703;51.248;-0.546;2022-09-12T15:16:47;4.40;4.10;
62631;PMS5003;48703;51.248;-0.546;2022-09-12T15:19:48;5.34;4.40;
62631;PMS5003;48703;51.248;-0.546;2022-09-12T15:22:49;4.84;4.31;
62631;PMS5003;48703;51.248;-0.546;2022-09-12T15:25:51;4.51;3.96;
62631;PMS5003;48703;51.248;-0.546;2022-09-12T15:28:52;4.84;4.01;
62631;PMS5003;48703;51.248;-0.546;2022-09-12T15:31:53;4.31;4.14;
62631;PMS5003;48703;51.248;-0.546;2022-09-12T15:34:55;4.93;4.20;
62631;PMS5003;48703;51.248;-0.546;2022-09-12T15:37:56;4.46;3.97;
62631;PMS5003;48703;51.248;-0.546;2022-09-12T15:40:57;4.70;4.70;
62631;PMS5003;48703;51.248;-0.546;2022-09-12T15:43:59;4.17;4.17;
62631;PMS5003;48703;51.248;-0.546;2022-09-12T15:47:00;4.50;3.83;
62631;PMS5003;48703;51.248;-0.546;2022-09-12T15:50:02;5.06;4.54;
62631;PMS5003;48703;51.248;-0.546;2022-09-12T15:53:03;3.40;3.20;
62631;PMS5003;48703;51.248;-0.546;2022-09-12T15:56:04;2.76;2.76;
62631;PMS5003;48703;51.248;-0.546;2022-09-12T15:59:05;2.96;2.96;
62631;PMS5003;48703;51.248;-0.546;2022-09-12T16:02:08;4.17;3.53;
62631;PMS5003;48703;51.248;-0.546;2022-09-12T16:05:10;3.67;3.24;
62631;PMS5003;48703;51.248;-0.546;2022-09-12T16:08:10;3.19;3.19;
62631;PMS5003;48703;51.248;-0.546;2022-09-12T16:11:17;3.44;3.44;
62631;PMS5003;48703;51.248;-0.546;2022-09-12T16:14:12;3.57;3.40;
62631;PMS5003;48703;51.248;-0.546;2022-09-12T16:17:14;3.37;2.51;
62631;PMS5003;48703;51.248;-0.546;2022-09-12T16:20:15;4.40;4.40;
62631;PMS5003;48703;51.248;-0.546;2022-09-12T16:23:16;3.99;3.39;
62631;PMS5003;48703;51.248;-0.546;2022-09-12T16:26:18;5.09;4.10;
62631;PMS5003;48703;51.248;-0.546;2022-09-12T16:29:19;4.07;4.01;
62631;PMS5003;48703;51.248;-0.546;2022-09-12T16:32:20;3.66;3.34;
62631;PMS5003;48703;51.248;-0.546;2022-09-12T16:35:22;3.66;3.66;
62631;PMS5003;48703;51.248;-0.546;2022-09-12T16:38:23;4.09;4.09;
62631;PMS5003;48703;51.248;-0.546;2022-09-12T16:41:31;3.97;3.54;
62631;PMS5003;48703;51.248;-0.546;2022-09-12T16:44:26;3.86;3.31;
62631;PMS5003;48703;51.248;-0.546;2022-09-12T16:47:27;4.60;3.91;
62631;PMS5003;48703;51.248;-0.546;2022-09-12T16:50:28;4.59;3.84;
62631;PMS5003;48703;51.248;-0.546;2022-09-12T16:53:30;4.43;4.43;
62631;PMS5003;48703;51.248;-0.546;2022-09-12T16:56:31;4.56;3.91;
62631;PMS5003;48703;51.248;-0.546;2022-09-12T16:59:32;3.74;3.06;
62631;PMS5003;48703;51.248;-0.546;2022-09-12T17:02:34;4.06;3.76;
62631;PMS5003;48703;51.248;-0.546;2022-09-12T17:05:35;4.04;3.27;
62631;PMS5003;48703;51.248;-0.546;2022-09-12T17:08:37;4.17;4.17;
62631;PMS5003;48703;51.248;-0.546;2022-09-12T17:11:38;4.51;3.51;
62631;PMS5003;48703;51.248;-0.546;2022-09-12T17:14:39;3.29;3.29;
62631;PMS5003;48703;51.248;-0.546;2022-09-12T17:17:41;2.71;2.71;
62631;PMS5003;48703;51.248;-0.546;2022-09-12T17:20:42;3.66;3.66;
62631;PMS5003;48703;51.248;-0.546;2022-09-12T17:23:43;4.70;3.93;
62631;PMS5003;48703;51.248;-0.546;2022-09-12T17:26:45;5.63;4.79;
62631;PMS5003;48703;51.248;-0.546;2022-09-12T17:29:46;5.90;5.10;
62631;PMS5003;48703;51.248;-0.546;2022-09-12T17:32:50;5.41;4.94;
62631;PMS5003;48703;51.248;-0.546;2022-09-12T17:35:49;4.34;4.34;
62631;PMS5003;48703;51.248;-0.546;2022-09-12T17:38:50;5.73;5.64;
62631;PMS5003;48703;51.248;-0.546;2022-09-12T17:41:51;5.27;4.61;
62631;PMS5003;48703;51.248;-0.546;2022-09-12T17:44:53;5.49;5.16;
62631;PMS5003;48703;51.248;-0.546;2022-09-12T17:47:54;5.26;5.26;
62631;PMS5003;48703;51.248;-0.546;2022-09-12T17:50:56;4.26;4.21;
62631;PMS5003;48703;51.248;-0.546;2022-09-12T17:53:58;4.04;3.61;
62631;PMS5003;48703;51.248;-0.546;2022-09-12T17:56:58;4.59;4.59;
62631;PMS5003;48703;51.248;-0.546;2022-09-12T18:00:00;4.94;4.40;
62631;PMS5003;48703;51.248;-0.546;2022-09-12T18:03:01;4.70;4.70;
62631;PMS5003;48703;51.248;-0.546;2022-09-12T18:06:03;5.59;4.60;
62631;PMS5003;48703;51.248;-0.546;2022-09-12T18:09:05;5.46;5.11;
62631;PMS5003;48703;51.248;-0.546;2022-09-12T18:12:05;6.24;5.77;
62631;PMS5003;48703;51.248;-0.546;2022-09-12T18:15:07;5.13;5.13;
62631;PMS5003;48703;51.248;-0.546;2022-09-12T18:18:08;7.97;6.90;
62631;PMS5003;48703;51.248;-0.546;2022-09-12T18:21:09;10.67;9.67;
62631;PMS5003;48703;51.248;-0.546;2022-09-12T18:24:11;13.63;11.80;